createdAt,value
2022-11-17T00:00:25.599Z,7.60
2022-11-17T00:02:53.613Z,7.00
2022-11-17T00:05:21.729Z,7.63
2022-11-17T00:07:49.987Z,8.40
2022-11-17T00:10:18.836Z,7.27
2022-11-17T00:13:05.525Z,7.73
2022-11-17T00:15:33.587Z,7.50
2022-11-17T00:18:19.256Z,7.57
2022-11-17T00:21:01.244Z,7.63
2022-11-17T00:23:47.051Z,7.67
2022-11-17T00:26:16.788Z,7.20
2022-11-17T00:28:46.127Z,7.50
2022-11-17T00:31:31.922Z,8.10
2022-11-17T00:34:06.485Z,7.33
2022-11-17T00:36:37.408Z,7.67
2022-11-17T00:39:06.224Z,7.83
2022-11-17T00:41:34.396Z,7.97
2022-11-17T00:44:03.767Z,6.80
2022-11-17T00:46:32.077Z,8.23
2022-11-17T00:49:00.309Z,7.47
2022-11-17T00:51:28.679Z,7.67
2022-11-17T00:53:57.009Z,7.87
2022-11-17T00:56:26.574Z,7.93
2022-11-17T00:58:54.654Z,8.20
2022-11-17T01:01:24.741Z,8.03
2022-11-17T01:04:02.843Z,8.37
2022-11-17T01:06:33.936Z,7.17
2022-11-17T01:09:02.519Z,8.10
2022-11-17T01:11:31.040Z,7.73
2022-11-17T01:14:01.226Z,8.37
2022-11-17T01:16:32.014Z,9.00
2022-11-17T01:19:01.785Z,8.80
2022-11-17T01:21:31.606Z,8.87
2022-11-17T01:24:01.641Z,8.33
2022-11-17T01:26:31.410Z,8.60
2022-11-17T01:29:00.440Z,9.03
2022-11-17T01:31:31.553Z,8.17
2022-11-17T01:34:00.056Z,9.13
2022-11-17T01:36:30.978Z,8.23
2022-11-17T01:38:58.984Z,9.67
2022-11-17T01:41:28.987Z,9.30
2022-11-17T01:43:58.644Z,8.40
2022-11-17T01:46:32.828Z,8.57
2022-11-17T01:49:05.877Z,9.23
2022-11-17T01:51:36.476Z,9.20
2022-11-17T01:54:04.715Z,8.97
2022-11-17T01:56:38.853Z,8.97
2022-11-17T01:59:11.010Z,8.80
2022-11-17T02:01:55.751Z,9.27
2022-11-17T02:04:27.103Z,9.70
2022-11-17T02:07:00.853Z,7.83
2022-11-17T02:09:29.271Z,8.90
2022-11-17T02:11:59.544Z,9.60
2022-11-17T02:14:27.616Z,6.33
2022-11-17T02:17:01.044Z,9.73
2022-11-17T02:19:38.143Z,9.57
2022-11-17T02:22:29.581Z,9.00
2022-11-17T02:25:25.839Z,8.40
2022-11-17T02:28:08.808Z,9.73
2022-11-17T02:30:42.641Z,8.87
2022-11-17T02:33:16.916Z,10.03
2022-11-17T02:35:51.039Z,7.47
2022-11-17T02:38:28.509Z,9.63
2022-11-17T02:41:03.557Z,9.17
2022-11-17T02:43:55.075Z,9.50
2022-11-17T02:46:24.633Z,10.10
2022-11-17T02:48:57.563Z,9.33
2022-11-17T02:51:26.522Z,10.63
2022-11-17T02:53:57.451Z,9.73
2022-11-17T02:56:25.504Z,9.63
2022-11-17T02:58:59.297Z,8.83
2022-11-17T03:01:47.192Z,5.43
2022-11-17T03:04:31.516Z,9.13
2022-11-17T03:07:11.893Z,8.23
2022-11-17T03:09:50.345Z,9.30
2022-11-17T03:12:24.379Z,9.80
2022-11-17T03:15:03.408Z,9.13
2022-11-17T03:17:38.225Z,9.00
2022-11-17T03:20:13.592Z,7.93
2022-11-17T03:22:49.690Z,8.90
2022-11-17T03:25:23.127Z,9.37
2022-11-17T03:27:55.941Z,9.70
2022-11-17T03:30:26.730Z,9.53
2022-11-17T03:33:02.183Z,9.00
2022-11-17T03:35:32.332Z,8.40
2022-11-17T03:38:05.178Z,9.00
2022-11-17T03:40:36.668Z,9.07
2022-11-17T03:43:08.413Z,9.73
2022-11-17T03:45:41.779Z,8.87
2022-11-17T03:48:15.192Z,9.23
2022-11-17T03:50:48.807Z,9.60
2022-11-17T03:53:17.103Z,8.73
2022-11-17T03:55:55.112Z,7.43
2022-11-17T03:58:25.425Z,9.73
2022-11-17T04:00:56.139Z,8.80
2022-11-17T04:03:24.463Z,7.23
2022-11-17T04:05:52.462Z,9.43
2022-11-17T04:08:23.948Z,8.50
2022-11-17T04:11:09.326Z,7.67
2022-11-17T04:13:54.658Z,7.67
2022-11-17T04:16:24.045Z,9.07
2022-11-17T04:18:55.925Z,9.00
2022-11-17T04:21:26.817Z,9.13
2022-11-17T04:23:54.828Z,8.10
2022-11-17T04:26:40.348Z,7.87
2022-11-17T04:29:08.304Z,8.87
2022-11-17T04:31:37.773Z,9.10
2022-11-17T04:34:07.853Z,7.93
2022-11-17T04:36:40.582Z,7.93
2022-11-17T04:39:08.613Z,8.30
2022-11-17T04:41:54.651Z,7.47
2022-11-17T04:44:24.533Z,8.77
2022-11-17T04:46:54.547Z,8.10
2022-11-17T04:49:23.927Z,8.50
2022-11-17T04:51:52.901Z,7.33
2022-11-17T04:54:24.514Z,7.90
2022-11-17T04:56:53.805Z,7.83
2022-11-17T04:59:22.120Z,8.70
2022-11-17T05:01:50.552Z,8.20
2022-11-17T05:04:35.828Z,8.57
2022-11-17T05:07:03.850Z,7.70
2022-11-17T05:09:32.162Z,8.47
2022-11-17T05:12:17.746Z,8.13
2022-11-17T05:14:47.260Z,7.40
2022-11-17T05:17:14.259Z,8.60
2022-11-17T05:19:45.456Z,8.33
2022-11-17T05:22:32.662Z,8.80
2022-11-17T05:25:01.285Z,8.83
2022-11-17T05:27:29.848Z,8.97
2022-11-17T05:29:58.129Z,8.23
2022-11-17T05:32:26.217Z,8.40
2022-11-17T05:34:55.560Z,8.50
2022-11-17T05:37:23.603Z,7.97
2022-11-17T05:39:51.776Z,7.83
2022-11-17T05:42:19.891Z,7.20
2022-11-17T05:44:48.964Z,8.80
2022-11-17T05:47:17.186Z,8.73
2022-11-17T05:49:45.253Z,7.37
2022-11-17T05:52:14.670Z,8.47
2022-11-17T05:54:42.740Z,7.93
2022-11-17T05:57:14.905Z,8.13
2022-11-17T05:59:46.662Z,7.80
2022-11-17T06:02:18.997Z,7.17
2022-11-17T06:04:49.668Z,9.53
2022-11-17T06:07:20.470Z,9.90
2022-11-17T06:09:49.074Z,9.07
2022-11-17T06:12:17.060Z,9.17
2022-11-17T06:14:45.068Z,9.60
2022-11-17T06:17:22.054Z,8.83
2022-11-17T06:19:55.847Z,9.13
2022-11-17T06:22:26.167Z,10.50
2022-11-17T06:24:55.428Z,9.93
2022-11-17T06:27:25.464Z,8.90
2022-11-17T06:29:54.836Z,10.20
2022-11-17T06:32:23.362Z,10.13
2022-11-17T06:34:56.199Z,10.80
2022-11-17T06:37:26.308Z,10.43
2022-11-17T06:39:54.373Z,10.10
2022-11-17T06:42:42.838Z,10.60
2022-11-17T06:45:12.603Z,10.37
2022-11-17T06:47:40.880Z,10.53
2022-11-17T06:50:09.849Z,9.87
2022-11-17T06:52:39.626Z,11.27
2022-11-17T06:55:08.952Z,10.80
2022-11-17T06:57:37.025Z,11.50
2022-11-17T07:00:07.028Z,11.53
2022-11-17T07:02:36.664Z,10.43
2022-11-17T07:05:04.974Z,10.43
2022-11-17T07:07:33.065Z,10.97
2022-11-17T07:10:02.563Z,11.70
2022-11-17T07:12:30.659Z,10.43
2022-11-17T07:14:58.699Z,11.67
2022-11-17T07:17:27.120Z,11.33
2022-11-17T07:19:55.559Z,8.40
2022-11-17T07:22:23.684Z,10.00
2022-11-17T07:24:51.736Z,11.63
2022-11-17T07:27:21.122Z,10.83
2022-11-17T07:29:49.201Z,12.00
2022-11-17T07:32:17.239Z,12.67
2022-11-17T07:34:45.306Z,12.27
2022-11-17T07:37:13.322Z,11.90
2022-11-17T07:39:41.387Z,9.30
2022-11-17T07:42:09.741Z,11.53
2022-11-17T07:44:39.187Z,12.47
2022-11-17T07:47:07.236Z,10.40
2022-11-17T07:49:35.274Z,10.97
2022-11-17T07:52:03.326Z,12.00
2022-11-17T07:54:31.344Z,12.20
2022-11-17T07:56:59.387Z,12.70
2022-11-17T07:59:27.435Z,9.93
2022-11-17T08:01:56.847Z,11.23
2022-11-17T08:04:24.947Z,11.00
2022-11-17T08:06:53.075Z,11.37
2022-11-17T08:09:21.186Z,11.63
2022-11-17T08:11:49.517Z,11.07
2022-11-17T08:14:17.590Z,9.27
2022-11-17T08:16:45.639Z,10.80
2022-11-17T08:19:15.282Z,8.03
2022-11-17T08:21:43.332Z,10.67
2022-11-17T08:24:13.382Z,11.37
2022-11-17T08:26:41.452Z,11.00
2022-11-17T08:29:09.721Z,11.47
2022-11-17T08:31:37.841Z,7.17
2022-11-17T08:34:06.385Z,9.37
2022-11-17T08:36:35.975Z,10.20
2022-11-17T08:39:04.567Z,8.87
2022-11-17T08:41:32.845Z,11.00
2022-11-17T08:44:01.304Z,12.20
2022-11-17T08:46:29.401Z,11.53
2022-11-17T08:48:57.529Z,11.33
2022-11-17T08:51:27.173Z,10.53
2022-11-17T08:53:57.711Z,12.23
2022-11-17T08:56:26.266Z,11.77
2022-11-17T08:58:54.335Z,10.67
2022-11-17T09:01:22.549Z,7.97
2022-11-17T09:03:50.732Z,9.80
2022-11-17T09:06:20.015Z,8.97
2022-11-17T09:08:48.790Z,11.97
2022-11-17T09:11:18.258Z,9.37
2022-11-17T09:13:47.060Z,8.33
2022-11-17T09:16:16.151Z,11.07
2022-11-17T09:18:47.039Z,11.50
2022-11-17T09:21:17.126Z,7.97
2022-11-17T09:23:45.198Z,11.93
2022-11-17T09:26:14.596Z,11.67
2022-11-17T09:28:44.794Z,12.83
2022-11-17T09:31:14.683Z,11.57
2022-11-17T09:33:44.473Z,11.23
2022-11-17T09:36:13.948Z,12.40
2022-11-17T09:38:42.318Z,12.63
2022-11-17T09:41:23.102Z,12.17
2022-11-17T09:44:03.575Z,8.57
2022-11-17T09:46:47.315Z,9.50
2022-11-17T09:49:24.195Z,12.13
2022-11-17T09:51:52.975Z,12.43
2022-11-17T09:54:27.950Z,12.23
2022-11-17T09:56:59.004Z,13.70
2022-11-17T09:59:31.021Z,12.70
2022-11-17T10:01:59.703Z,10.97
2022-11-17T10:04:30.522Z,13.40
2022-11-17T10:06:59.540Z,8.50
2022-11-17T10:09:37.767Z,10.47
2022-11-17T10:12:17.768Z,11.97
2022-11-17T10:14:49.162Z,13.07
2022-11-17T10:17:17.617Z,10.00
2022-11-17T10:19:46.429Z,12.80
2022-11-17T10:22:28.215Z,10.23
2022-11-17T10:24:58.575Z,12.93
2022-11-17T10:27:28.365Z,9.80
2022-11-17T10:30:02.453Z,13.07
2022-11-17T10:32:32.982Z,14.00
2022-11-17T10:35:15.128Z,11.83
2022-11-17T10:37:52.585Z,14.23
2022-11-17T10:40:25.436Z,13.90
2022-11-17T10:43:04.025Z,13.70
2022-11-17T10:45:34.438Z,13.47
2022-11-17T10:48:24.036Z,13.37
2022-11-17T10:50:53.904Z,13.83
2022-11-17T10:53:32.554Z,11.87
2022-11-17T10:56:13.653Z,13.13
2022-11-17T10:59:02.133Z,13.27
2022-11-17T11:01:35.051Z,12.67
2022-11-17T11:04:04.263Z,13.83
2022-11-17T11:06:33.993Z,13.17
2022-11-17T11:09:05.693Z,14.10
2022-11-17T11:11:44.999Z,15.23
2022-11-17T11:14:32.462Z,14.87
2022-11-17T11:17:07.354Z,14.43
2022-11-17T11:19:35.726Z,13.23
2022-11-17T11:22:21.514Z,13.50
2022-11-17T11:24:56.586Z,14.13
2022-11-17T11:27:49.383Z,12.10
2022-11-17T11:30:19.663Z,13.23
2022-11-17T11:33:01.959Z,15.40
2022-11-17T11:35:45.982Z,13.97
2022-11-17T11:38:28.728Z,14.47
2022-11-17T11:41:20.196Z,14.20
2022-11-17T11:44:00.221Z,13.53
2022-11-17T11:46:39.095Z,14.03
2022-11-17T11:49:16.737Z,13.90
2022-11-17T11:51:47.546Z,12.70
2022-11-17T11:54:20.562Z,12.87
2022-11-17T11:56:49.598Z,12.43
2022-11-17T11:59:22.558Z,13.97
2022-11-17T12:02:03.009Z,11.80
2022-11-17T12:04:41.311Z,12.60
2022-11-17T12:07:18.544Z,12.23
2022-11-17T12:09:52.925Z,12.83
2022-11-17T12:12:28.278Z,13.23
2022-11-17T12:15:13.633Z,13.13
2022-11-17T12:18:00.088Z,12.90
2022-11-17T12:20:55.198Z,13.30
2022-11-17T12:23:39.141Z,12.13
2022-11-17T12:26:07.846Z,13.20
2022-11-17T12:28:38.128Z,14.10
2022-11-17T12:31:10.425Z,9.60
2022-11-17T12:34:11.446Z,12.83
2022-11-17T12:36:41.148Z,12.17
2022-11-17T12:39:47.563Z,9.73
2022-11-17T12:42:15.674Z,12.50
2022-11-17T12:44:51.541Z,13.07
2022-11-17T12:47:21.468Z,11.97
2022-11-17T12:50:09.328Z,11.10
2022-11-17T12:52:47.499Z,13.33
2022-11-17T12:55:22.662Z,12.80
2022-11-17T12:57:58.086Z,12.53
2022-11-17T13:00:27.087Z,12.30
2022-11-17T13:03:02.792Z,12.53
2022-11-17T13:05:31.470Z,12.70
2022-11-17T13:08:22.343Z,13.43
2022-11-17T13:10:50.924Z,12.73
2022-11-17T13:13:20.649Z,11.83
2022-11-17T13:15:52.171Z,12.27
2022-11-17T13:18:30.919Z,12.37
2022-11-17T13:20:59.392Z,12.20
2022-11-17T13:23:29.948Z,12.07
2022-11-17T13:26:21.513Z,12.07
2022-11-17T13:28:50.375Z,12.73
2022-11-17T13:31:20.475Z,12.03
2022-11-17T13:33:57.714Z,11.80
2022-11-17T13:36:27.302Z,8.37
2022-11-17T13:39:00.391Z,12.00
2022-11-17T13:41:30.362Z,10.87
2022-11-17T13:43:58.791Z,11.27
2022-11-17T13:46:26.983Z,10.90
2022-11-17T13:48:55.230Z,11.77
2022-11-17T13:51:28.822Z,11.57
2022-11-17T13:54:01.542Z,11.20
2022-11-17T13:56:35.292Z,10.13
2022-11-17T13:59:07.564Z,12.37
2022-11-17T14:01:35.945Z,12.60
2022-11-17T14:04:19.805Z,11.60
2022-11-17T14:06:57.190Z,12.00
2022-11-17T14:09:28.593Z,9.57
2022-11-17T14:11:57.526Z,11.63
2022-11-17T14:14:33.523Z,11.03
2022-11-17T14:17:13.029Z,11.70
2022-11-17T14:19:41.132Z,11.90
2022-11-17T14:22:30.908Z,12.60
2022-11-17T14:25:01.311Z,10.80
2022-11-17T14:27:41.652Z,12.13
2022-11-17T14:30:14.517Z,11.40
2022-11-17T14:32:42.576Z,11.73
2022-11-17T14:35:14.791Z,11.77
2022-11-17T14:37:43.185Z,10.70
2022-11-17T14:40:17.553Z,11.67
2022-11-17T14:42:45.782Z,10.23
2022-11-17T14:45:16.522Z,10.07
2022-11-17T14:47:44.919Z,10.17
2022-11-17T14:50:14.798Z,10.07
2022-11-17T14:52:43.746Z,10.30
2022-11-17T14:55:12.360Z,10.77
2022-11-17T14:57:42.058Z,10.60
2022-11-17T15:00:17.287Z,9.43
2022-11-17T15:02:48.140Z,10.70
2022-11-17T15:05:16.704Z,9.50
2022-11-17T15:07:44.967Z,10.40
2022-11-17T15:10:13.112Z,9.70
2022-11-17T15:12:42.555Z,10.07
2022-11-17T15:15:11.267Z,9.13
2022-11-17T15:17:39.677Z,9.80
2022-11-17T15:20:09.681Z,10.20
2022-11-17T15:22:37.799Z,10.93
2022-11-17T15:25:06.623Z,10.67
2022-11-17T15:27:34.690Z,11.53
2022-11-17T15:30:04.805Z,11.23
2022-11-17T15:32:32.895Z,10.73
2022-11-17T15:35:00.944Z,11.33
2022-11-17T15:37:29.016Z,11.23
2022-11-17T15:39:56.995Z,10.67
2022-11-17T15:42:25.065Z,12.10
2022-11-17T15:44:53.142Z,10.87
2022-11-17T15:47:22.625Z,12.87
2022-11-17T15:49:50.629Z,12.03
2022-11-17T15:52:30.066Z,11.73
2022-11-17T15:55:07.329Z,11.90
2022-11-17T15:57:35.346Z,12.03
2022-11-17T16:00:04.369Z,11.63
2022-11-17T16:02:33.703Z,10.53
2022-11-17T16:05:02.137Z,11.63
2022-11-17T16:07:30.382Z,11.93
2022-11-17T16:09:58.417Z,12.13
2022-11-17T16:12:26.495Z,12.57
2022-11-17T16:14:54.525Z,12.43
2022-11-17T16:17:22.574Z,12.53
2022-11-17T16:19:51.959Z,11.60
2022-11-17T16:22:20.014Z,13.40
2022-11-17T16:24:48.062Z,11.90
2022-11-17T16:27:16.117Z,10.87
2022-11-17T16:29:44.150Z,10.77
2022-11-17T16:32:12.146Z,10.87
2022-11-17T16:34:41.527Z,12.73
2022-11-17T16:37:11.000Z,12.00
2022-11-17T16:39:39.598Z,11.03
2022-11-17T16:42:07.778Z,10.17
2022-11-17T16:44:35.970Z,10.63
2022-11-17T16:47:04.071Z,10.63
2022-11-17T16:49:34.943Z,10.13
2022-11-17T16:52:03.000Z,10.60
2022-11-17T16:54:32.425Z,10.57
2022-11-17T16:57:00.416Z,11.23
2022-11-17T16:59:28.422Z,11.60
2022-11-17T17:01:56.434Z,11.27
2022-11-17T17:04:24.514Z,10.73
2022-11-17T17:06:52.671Z,11.60
2022-11-17T17:09:27.490Z,11.23
2022-11-17T17:11:58.235Z,9.97
2022-11-17T17:14:26.427Z,11.43
2022-11-17T17:16:54.557Z,11.93
2022-11-17T17:19:22.705Z,11.07
2022-11-17T17:21:50.802Z,10.57
2022-11-17T17:24:19.341Z,10.40
2022-11-17T17:26:47.702Z,9.07
2022-11-17T17:29:17.351Z,11.10
2022-11-17T17:31:45.682Z,10.00
2022-11-17T17:34:15.457Z,10.47
2022-11-17T17:36:43.871Z,11.07
2022-11-17T17:39:15.572Z,12.07
2022-11-17T17:41:44.455Z,11.03
2022-11-17T17:44:17.403Z,10.43
2022-11-17T17:46:46.311Z,11.87
2022-11-17T17:49:14.792Z,10.90
2022-11-17T17:51:44.788Z,9.57
2022-11-17T17:54:16.773Z,9.50
2022-11-17T17:56:45.057Z,10.60
2022-11-17T17:59:14.574Z,10.10
2022-11-17T18:01:46.082Z,10.27
2022-11-17T18:04:16.281Z,9.63
2022-11-17T18:06:47.363Z,9.03
2022-11-17T18:09:18.746Z,10.43
2022-11-17T18:11:49.445Z,10.40
2022-11-17T18:14:20.392Z,9.20
2022-11-17T18:16:49.782Z,9.63
2022-11-17T18:19:19.009Z,9.90
2022-11-17T18:21:47.270Z,12.50
2022-11-17T18:24:15.390Z,10.33
2022-11-17T18:26:43.797Z,9.00
2022-11-17T18:29:16.035Z,9.37
2022-11-17T18:31:46.549Z,9.17
2022-11-17T18:34:18.787Z,9.83
2022-11-17T18:36:46.990Z,10.07
2022-11-17T18:39:16.207Z,10.00
2022-11-17T18:41:44.900Z,10.13
2022-11-17T18:44:13.952Z,9.87
2022-11-17T18:46:42.349Z,7.57
2022-11-17T18:49:10.597Z,8.90
2022-11-17T18:51:40.583Z,9.10
2022-11-17T18:54:08.889Z,9.83
2022-11-17T18:56:38.517Z,10.97
2022-11-17T18:59:11.611Z,11.50
2022-11-17T19:01:41.078Z,11.10
2022-11-17T19:04:09.251Z,10.53
2022-11-17T19:06:37.262Z,10.57
2022-11-17T19:09:08.142Z,10.40
2022-11-17T19:11:36.237Z,10.67
2022-11-17T19:14:05.299Z,11.13
2022-11-17T19:16:42.633Z,10.33
2022-11-17T19:19:13.122Z,11.30
2022-11-17T19:21:41.904Z,9.50
2022-11-17T19:24:11.573Z,10.23
2022-11-17T19:26:39.929Z,11.37
2022-11-17T19:29:15.980Z,10.17
2022-11-17T19:31:44.705Z,10.50
2022-11-17T19:34:13.177Z,9.50
2022-11-17T19:36:41.191Z,10.37
2022-11-17T19:39:09.264Z,11.43
2022-11-17T19:41:39.706Z,10.67
2022-11-17T19:44:09.326Z,9.57
2022-11-17T19:46:37.681Z,10.07
2022-11-17T19:49:07.484Z,11.07
2022-11-17T19:51:37.502Z,11.00
2022-11-17T19:54:07.456Z,12.03
2022-11-17T19:56:35.761Z,11.53
2022-11-17T19:59:06.203Z,10.57
2022-11-17T20:01:34.783Z,9.87
2022-11-17T20:04:04.425Z,9.60
2022-11-17T20:06:37.953Z,9.50
2022-11-17T20:09:10.024Z,9.60
2022-11-17T20:11:38.509Z,9.77
2022-11-17T20:14:08.510Z,9.93
2022-11-17T20:16:38.303Z,10.37
2022-11-17T20:19:06.471Z,10.23
2022-11-17T20:21:34.809Z,9.53
2022-11-17T20:24:03.257Z,9.50
2022-11-17T20:26:33.182Z,9.57
2022-11-17T20:29:01.925Z,10.43
2022-11-17T20:31:33.426Z,10.53
2022-11-17T20:34:03.259Z,10.10
2022-11-17T20:36:33.138Z,9.30
2022-11-17T20:39:02.651Z,9.30
2022-11-17T20:41:31.257Z,8.73
2022-11-17T20:44:01.810Z,8.87
2022-11-17T20:46:31.403Z,8.93
2022-11-17T20:48:59.431Z,10.67
2022-11-17T20:51:27.819Z,9.93
2022-11-17T20:53:56.205Z,10.27
2022-11-17T20:56:24.223Z,9.17
2022-11-17T20:58:52.293Z,9.73
2022-11-17T21:01:23.037Z,8.73
2022-11-17T21:03:52.539Z,9.53
2022-11-17T21:06:22.866Z,7.70
2022-11-17T21:08:51.190Z,8.33
2022-11-17T21:11:35.022Z,7.97
2022-11-17T21:14:03.683Z,9.23
2022-11-17T21:16:31.721Z,9.17
2022-11-17T21:19:01.242Z,8.33
2022-11-17T21:21:29.469Z,8.37
2022-11-17T21:23:57.507Z,8.10
2022-11-17T21:26:25.588Z,9.03
2022-11-17T21:28:53.867Z,8.17
2022-11-17T21:31:23.788Z,8.50
2022-11-17T21:33:54.840Z,8.23
2022-11-17T21:36:25.628Z,8.07
2022-11-17T21:38:54.405Z,8.97
2022-11-17T21:41:24.686Z,7.73
2022-11-17T21:43:54.649Z,8.17
2022-11-17T21:46:28.448Z,8.07
2022-11-17T21:48:58.239Z,8.60
2022-11-17T21:51:30.032Z,9.13
2022-11-17T21:53:59.832Z,8.53
2022-11-17T21:56:29.522Z,8.57
2022-11-17T21:58:58.146Z,8.63
2022-11-17T22:01:26.915Z,8.80
2022-11-17T22:03:55.110Z,7.30
2022-11-17T22:06:25.592Z,8.27
2022-11-17T22:08:56.037Z,7.97
2022-11-17T22:11:36.868Z,8.10
2022-11-17T22:14:10.136Z,9.07
2022-11-17T22:16:40.022Z,8.23
2022-11-17T22:19:09.275Z,9.00
2022-11-17T22:21:38.532Z,8.60
2022-11-17T22:24:12.755Z,9.17
2022-11-17T22:26:43.474Z,9.03
2022-11-17T22:29:14.134Z,7.70
2022-11-17T22:31:43.226Z,9.43
2022-11-17T22:34:12.030Z,8.57
2022-11-17T22:36:40.799Z,9.07
2022-11-17T22:39:10.674Z,8.57
2022-11-17T22:41:39.503Z,9.07
2022-11-17T22:44:07.887Z,9.43
2022-11-17T22:46:36.467Z,9.23
2022-11-17T22:49:04.828Z,8.83
2022-11-17T22:51:50.662Z,9.00
2022-11-17T22:54:20.499Z,9.67
2022-11-17T22:56:49.053Z,9.40
2022-11-17T22:59:17.741Z,9.17
2022-11-17T23:01:46.373Z,9.00
2022-11-17T23:04:16.520Z,8.70
2022-11-17T23:06:45.304Z,9.63
2022-11-17T23:09:14.449Z,8.90
2022-11-17T23:11:44.619Z,9.37
2022-11-17T23:14:15.130Z,9.10
2022-11-17T23:16:43.833Z,9.00
2022-11-17T23:19:14.337Z,9.83
2022-11-17T23:21:43.145Z,9.30
2022-11-17T23:24:13.105Z,10.33
2022-11-17T23:26:43.449Z,9.60
2022-11-17T23:29:12.053Z,8.50
2022-11-17T23:31:40.463Z,10.47
2022-11-17T23:34:10.948Z,10.00
2022-11-17T23:36:39.443Z,9.60
2022-11-17T23:39:08.001Z,11.00
2022-11-17T23:41:36.725Z,9.70
2022-11-17T23:44:06.951Z,9.60
2022-11-17T23:46:35.477Z,10.17
2022-11-17T23:49:06.036Z,10.00
2022-11-17T23:51:35.058Z,10.03
2022-11-17T23:54:03.990Z,9.70
2022-11-17T23:56:34.574Z,9.67
2022-11-17T23:59:03.261Z,10.17
